createdAt,value
2022-08-02T00:00:50.712Z,1.30
2022-08-02T00:03:24.459Z,4.07
2022-08-02T00:05:53.412Z,2.67
2022-08-02T00:08:20.799Z,2.55
2022-08-02T00:10:47.281Z,0.52
2022-08-02T00:13:13.825Z,1.77
2022-08-02T00:15:40.434Z,3.33
2022-08-02T00:18:06.946Z,2.95
2022-08-02T00:20:33.513Z,2.90
2022-08-02T00:23:00.111Z,6.47
2022-08-02T00:25:26.645Z,3.72
2022-08-02T00:27:53.186Z,0.98
2022-08-02T00:30:19.669Z,3.78
2022-08-02T00:32:46.229Z,1.48
2022-08-02T00:35:12.878Z,2.95
2022-08-02T00:37:40.181Z,2.28
2022-08-02T00:40:07.347Z,1.67
2022-08-02T00:42:33.823Z,1.90
2022-08-02T00:45:00.303Z,2.90
2022-08-02T00:47:26.782Z,3.22
2022-08-02T00:49:53.303Z,2.17
2022-08-02T00:52:19.813Z,3.10
2022-08-02T00:54:46.354Z,1.13
2022-08-02T00:57:12.861Z,1.45
2022-08-02T00:59:39.340Z,1.10
2022-08-02T01:02:05.995Z,3.53
2022-08-02T01:04:32.597Z,1.73
2022-08-02T01:06:59.939Z,2.60
2022-08-02T01:09:26.792Z,4.65
2022-08-02T01:11:53.424Z,0.68
2022-08-02T01:14:20.190Z,2.60
2022-08-02T01:16:48.617Z,1.85
2022-08-02T01:19:28.545Z,1.10
2022-08-02T01:22:06.036Z,2.80
2022-08-02T01:24:51.022Z,1.40
2022-08-02T01:27:35.666Z,2.42
2022-08-02T01:30:02.903Z,0.50
2022-08-02T01:32:35.443Z,2.05
2022-08-02T01:35:01.972Z,2.10
2022-08-02T01:37:41.096Z,4.88
2022-08-02T01:40:10.751Z,1.50
2022-08-02T01:42:38.601Z,2.55
2022-08-02T01:45:06.358Z,2.28
2022-08-02T01:47:35.452Z,0.93
2022-08-02T01:50:02.423Z,1.88
2022-08-02T01:52:30.830Z,3.85
2022-08-02T01:55:05.782Z,0.85
2022-08-02T01:57:41.898Z,1.55
2022-08-02T02:00:10.478Z,1.90
2022-08-02T02:02:40.180Z,1.33
2022-08-02T02:05:07.264Z,3.30
2022-08-02T02:07:35.495Z,1.33
2022-08-02T02:10:02.706Z,1.10
2022-08-02T02:12:31.062Z,4.47
2022-08-02T02:14:58.083Z,1.23
2022-08-02T02:17:50.605Z,1.63
2022-08-02T02:20:14.439Z,0.80
2022-08-02T02:22:41.462Z,1.17
2022-08-02T02:25:11.558Z,2.00
2022-08-02T02:27:39.777Z,2.65
2022-08-02T02:30:07.175Z,1.38
2022-08-02T02:32:34.981Z,1.42
2022-08-02T02:35:02.118Z,0.55
2022-08-02T02:37:29.076Z,3.15
2022-08-02T02:39:56.841Z,1.55
2022-08-02T02:42:27.132Z,1.65
2022-08-02T02:44:54.146Z,1.52
2022-08-02T02:47:21.582Z,1.42
2022-08-02T02:49:49.226Z,1.33
2022-08-02T02:52:16.443Z,3.85
2022-08-02T02:54:44.750Z,1.08
2022-08-02T02:57:11.731Z,4.07
2022-08-02T02:59:48.968Z,2.28
2022-08-02T03:02:16.335Z,4.78
2022-08-02T03:04:57.374Z,0.80
2022-08-02T03:07:25.077Z,2.80
2022-08-02T03:09:54.262Z,1.30
2022-08-02T03:12:24.891Z,5.78
2022-08-02T03:14:56.058Z,5.60
2022-08-02T03:17:22.582Z,4.28
2022-08-02T03:19:49.106Z,4.15
2022-08-02T03:22:15.655Z,2.58
2022-08-02T03:24:42.258Z,1.65
2022-08-02T03:27:08.790Z,3.63
2022-08-02T03:29:35.344Z,1.50
2022-08-02T03:32:01.926Z,1.00
2022-08-02T03:34:28.962Z,3.58
2022-08-02T03:36:56.211Z,2.33
2022-08-02T03:39:22.959Z,2.80
2022-08-02T03:41:49.732Z,2.97
2022-08-02T03:44:16.618Z,3.17
2022-08-02T03:46:43.299Z,2.08
2022-08-02T03:49:10.680Z,2.38
2022-08-02T03:51:37.426Z,2.00
2022-08-02T03:54:04.368Z,1.00
2022-08-02T03:56:31.984Z,2.83
2022-08-02T03:59:08.716Z,2.67
2022-08-02T04:01:35.234Z,2.75
2022-08-02T04:04:01.793Z,4.50
2022-08-02T04:06:28.606Z,3.00
2022-08-02T04:08:55.119Z,0.70
2022-08-02T04:11:33.812Z,2.97
2022-08-02T04:14:01.610Z,1.00
2022-08-02T04:16:34.096Z,3.45
2022-08-02T04:19:01.728Z,0.85
2022-08-02T04:21:50.053Z,2.67
2022-08-02T04:24:19.033Z,3.72
2022-08-02T04:26:48.826Z,0.75
2022-08-02T04:29:17.342Z,2.13
2022-08-02T04:31:43.971Z,1.48
2022-08-02T04:34:14.732Z,3.40
2022-08-02T04:36:42.240Z,1.50
2022-08-02T04:39:08.758Z,1.40
2022-08-02T04:41:45.108Z,2.72
2022-08-02T04:44:12.332Z,2.08
2022-08-02T04:46:39.534Z,2.17
2022-08-02T04:49:06.177Z,2.88
2022-08-02T04:51:38.254Z,2.95
2022-08-02T04:54:09.738Z,2.25
2022-08-02T04:56:36.936Z,4.80
2022-08-02T04:59:03.410Z,0.98
2022-08-02T05:01:30.008Z,1.73
2022-08-02T05:03:56.500Z,3.40
2022-08-02T05:06:23.103Z,2.00
2022-08-02T05:08:52.899Z,0.85
2022-08-02T05:11:19.978Z,4.03
2022-08-02T05:13:57.906Z,1.42
2022-08-02T05:16:31.623Z,5.13
2022-08-02T05:18:58.936Z,1.75
2022-08-02T05:21:25.439Z,1.52
2022-08-02T05:23:51.974Z,3.28
2022-08-02T05:26:18.499Z,2.42
2022-08-02T05:28:45.044Z,3.10
2022-08-02T05:31:13.062Z,2.75
2022-08-02T05:33:40.069Z,1.83
2022-08-02T05:36:06.859Z,1.90
2022-08-02T05:38:37.014Z,2.22
2022-08-02T05:41:04.107Z,1.80
2022-08-02T05:43:30.745Z,2.40
2022-08-02T05:45:57.332Z,3.78
2022-08-02T05:48:29.124Z,2.05
2022-08-02T05:51:02.706Z,1.27
2022-08-02T05:53:45.257Z,2.22
2022-08-02T05:56:30.094Z,1.30
2022-08-02T05:59:01.702Z,0.70
2022-08-02T06:01:32.551Z,1.77
2022-08-02T06:04:00.407Z,1.48
2022-08-02T06:06:27.103Z,2.28
2022-08-02T06:09:06.741Z,1.20
2022-08-02T06:11:35.687Z,2.92
2022-08-02T06:14:03.670Z,2.13
2022-08-02T06:16:32.060Z,2.95
2022-08-02T06:19:00.186Z,1.30
2022-08-02T06:22:33.088Z,1.60
2022-08-02T06:24:17.598Z,0.75
2022-08-02T06:26:44.666Z,1.83
2022-08-02T06:29:12.373Z,2.72
2022-08-02T06:31:40.963Z,2.33
2022-08-02T06:34:07.440Z,1.75
2022-08-02T06:36:34.641Z,3.08
2022-08-02T06:39:20.285Z,0.60
2022-08-02T06:41:48.766Z,1.77
2022-08-02T06:47:12.464Z,0.40
2022-08-02T06:49:52.511Z,1.02
2022-08-02T06:52:26.877Z,3.33
2022-08-02T06:54:55.496Z,1.83
2022-08-02T06:57:21.983Z,2.63
2022-08-02T06:59:48.471Z,0.73
2022-08-02T07:02:15.172Z,1.33
2022-08-02T07:04:41.674Z,3.58
2022-08-02T07:07:08.288Z,3.38
2022-08-02T07:09:34.789Z,2.20
2022-08-02T07:12:01.732Z,2.10
2022-08-02T07:14:28.250Z,1.25
2022-08-02T07:16:54.828Z,2.00
2022-08-02T07:19:21.297Z,2.60
2022-08-02T07:21:56.930Z,1.75
2022-08-02T07:24:27.318Z,3.03
2022-08-02T07:27:10.713Z,2.70
2022-08-02T07:29:46.415Z,3.03
2022-08-02T07:32:16.921Z,2.97
2022-08-02T07:34:44.770Z,1.38
2022-08-02T07:37:35.115Z,2.50
2022-08-02T07:40:04.073Z,2.25
2022-08-02T07:42:32.997Z,3.70
2022-08-02T07:44:59.651Z,1.00
2022-08-02T07:47:26.139Z,3.45
2022-08-02T07:49:52.618Z,1.58
2022-08-02T07:52:19.285Z,2.53
2022-08-02T07:54:45.878Z,3.70
2022-08-02T07:57:12.936Z,2.42
2022-08-02T07:59:39.430Z,0.93
2022-08-02T08:02:06.035Z,1.77
2022-08-02T08:04:32.598Z,1.27
2022-08-02T08:06:59.790Z,3.30
2022-08-02T08:09:26.478Z,1.45
2022-08-02T08:11:52.950Z,1.70
2022-08-02T08:14:19.543Z,2.63
2022-08-02T08:16:46.014Z,3.13
2022-08-02T08:19:12.688Z,1.05
2022-08-02T08:21:39.169Z,4.65
2022-08-02T08:24:05.780Z,3.88
2022-08-02T08:26:32.377Z,2.72
2022-08-02T08:28:58.909Z,2.75
2022-08-02T08:31:25.813Z,4.10
2022-08-02T08:33:52.623Z,2.10
2022-08-02T08:36:19.171Z,3.72
2022-08-02T08:38:45.645Z,3.45
2022-08-02T08:41:12.269Z,2.80
2022-08-02T08:43:38.762Z,5.07
2022-08-02T08:46:05.675Z,3.22
2022-08-02T08:48:33.104Z,2.50
2022-08-02T08:51:10.576Z,2.90
2022-08-02T08:53:39.873Z,2.38
2022-08-02T08:56:07.851Z,2.30
2022-08-02T08:58:34.488Z,1.83
2022-08-02T09:01:01.084Z,1.75
2022-08-02T09:03:27.804Z,2.17
2022-08-02T09:06:00.990Z,1.70
2022-08-02T09:08:27.556Z,1.20
2022-08-02T09:10:55.240Z,2.42
2022-08-02T09:13:38.390Z,2.55
2022-08-02T09:16:14.392Z,3.63
2022-08-02T09:18:46.123Z,2.05
2022-08-02T09:21:14.830Z,1.55
2022-08-02T09:23:46.074Z,2.75
2022-08-02T09:26:22.582Z,1.70
2022-08-02T09:28:53.099Z,4.60
2022-08-02T09:31:23.197Z,1.63
2022-08-02T09:33:54.466Z,1.20
2022-08-02T09:36:21.389Z,2.88
2022-08-02T09:39:03.611Z,1.10
2022-08-02T09:41:32.859Z,3.72
2022-08-02T09:44:05.184Z,1.63
2022-08-02T09:46:33.791Z,1.75
2022-08-02T09:49:02.145Z,2.28
2022-08-02T09:51:29.666Z,2.38
2022-08-02T09:54:07.952Z,1.50
2022-08-02T09:56:43.279Z,1.10
2022-08-02T09:59:09.928Z,1.45
2022-08-02T10:01:39.039Z,2.88
2022-08-02T10:04:07.881Z,2.00
2022-08-02T10:06:34.930Z,3.45
2022-08-02T10:09:02.891Z,2.38
2022-08-02T10:11:29.483Z,2.10
2022-08-02T10:13:55.986Z,1.67
2022-08-02T10:16:26.075Z,1.98
2022-08-02T10:19:02.109Z,1.85
2022-08-02T10:21:44.943Z,3.00
2022-08-02T10:24:14.890Z,1.33
2022-08-02T10:26:42.914Z,2.75
2022-08-02T10:29:10.886Z,0.57
2022-08-02T11:13:26.387Z,2.45
2022-08-02T11:16:01.420Z,1.48
2022-08-02T11:18:46.654Z,2.30
2022-08-02T11:21:23.488Z,2.65
2022-08-02T11:23:50.242Z,3.00
2022-08-02T11:26:28.978Z,2.22
2022-08-02T11:28:55.963Z,1.65
2022-08-02T11:31:22.480Z,0.93
2022-08-02T11:33:49.692Z,2.28
2022-08-02T11:36:17.151Z,2.28
2022-08-02T11:38:43.697Z,2.10
2022-08-02T11:41:10.606Z,2.00
2022-08-02T11:43:37.395Z,2.05
2022-08-02T11:46:04.323Z,0.77
2022-08-02T11:48:36.178Z,1.10
2022-08-02T11:51:16.826Z,3.28
2022-08-02T11:53:44.337Z,7.95
2022-08-02T11:56:13.547Z,2.78
2022-08-02T11:59:05.709Z,1.67
2022-08-02T12:01:36.700Z,3.30
2022-08-02T12:04:15.591Z,1.73
2022-08-02T12:06:42.361Z,1.08
2022-08-02T12:09:17.640Z,1.42
2022-08-02T12:11:48.308Z,1.75
2022-08-02T12:14:14.790Z,5.22
2022-08-02T12:17:00.163Z,3.08
2022-08-02T12:19:27.811Z,3.00
2022-08-02T12:22:11.240Z,3.60
2022-08-02T12:24:38.533Z,2.60
2022-08-02T12:27:05.239Z,1.75
2022-08-02T12:29:56.026Z,1.70
2022-08-02T12:32:23.870Z,0.88
2022-08-02T12:35:00.869Z,2.30
2022-08-02T12:37:27.488Z,3.05
2022-08-02T12:39:54.084Z,2.38
2022-08-02T12:42:20.595Z,2.38
2022-08-02T12:44:54.386Z,3.15
2022-08-02T12:47:21.796Z,1.00
2022-08-02T12:50:07.326Z,1.85
2022-08-02T12:52:33.854Z,0.63
2022-08-02T12:55:00.347Z,1.10
2022-08-02T12:57:26.989Z,4.03
2022-08-02T12:59:53.976Z,1.25
2022-08-02T13:02:21.531Z,2.25
2022-08-02T13:04:49.816Z,2.97
2022-08-02T13:07:17.507Z,0.65
2022-08-02T13:09:48.414Z,1.85
2022-08-02T13:12:15.648Z,2.78
2022-08-02T13:14:42.909Z,1.40
2022-08-02T13:17:12.270Z,1.52
2022-08-02T13:19:39.053Z,1.42
2022-08-02T13:22:05.690Z,1.35
2022-08-02T13:24:40.569Z,3.60
2022-08-02T13:27:20.799Z,1.60
2022-08-02T13:29:48.726Z,2.33
2022-08-02T13:32:16.270Z,2.00
2022-08-02T13:34:43.243Z,1.40
2022-08-02T13:37:09.721Z,1.05
2022-08-02T13:39:36.239Z,2.22
2022-08-02T13:42:02.808Z,1.13
2022-08-02T13:44:29.311Z,0.75
2022-08-02T13:46:55.913Z,2.85
2022-08-02T13:49:49.880Z,1.15
2022-08-02T13:52:09.270Z,1.90
2022-08-02T13:54:35.961Z,3.85
2022-08-02T13:57:02.555Z,3.25
2022-08-02T13:59:55.955Z,4.10
2022-08-02T14:02:18.441Z,5.10
2022-08-02T14:04:45.261Z,8.23
2022-08-02T14:07:11.857Z,3.53
2022-08-02T14:09:38.441Z,3.47
2022-08-02T14:12:07.309Z,11.00
2022-08-02T14:14:33.793Z,3.60
2022-08-02T14:17:01.793Z,3.75
2022-08-02T14:19:28.608Z,4.97
2022-08-02T14:22:11.088Z,4.85
2022-08-02T14:24:41.756Z,5.63
2022-08-02T14:27:08.571Z,4.15
2022-08-02T14:29:35.104Z,3.90
2022-08-02T14:32:01.909Z,6.57
2022-08-02T14:34:28.719Z,4.38
2022-08-02T14:36:56.101Z,4.63
2022-08-02T14:39:22.658Z,8.20
2022-08-02T14:41:58.369Z,4.10
2022-08-02T14:44:27.185Z,3.88
2022-08-02T14:46:53.788Z,4.38
2022-08-02T14:49:25.545Z,8.40
2022-08-02T14:51:56.524Z,4.00
2022-08-02T14:54:28.069Z,3.28
2022-08-02T14:57:01.122Z,6.65
2022-08-02T14:59:28.011Z,7.68
2022-08-02T15:01:54.658Z,4.82
2022-08-02T15:04:21.224Z,5.32
2022-08-02T15:06:47.812Z,6.43
2022-08-02T15:09:14.318Z,4.72
2022-08-02T15:11:47.347Z,3.40
2022-08-02T15:14:25.991Z,4.75
2022-08-02T15:16:58.039Z,3.88
2022-08-02T15:19:26.430Z,4.75
2022-08-02T15:22:08.516Z,3.53
2022-08-02T15:24:35.035Z,5.50
2022-08-02T15:27:01.594Z,3.35
2022-08-02T15:29:28.189Z,5.90
2022-08-02T15:31:54.680Z,12.00
2022-08-02T15:34:21.159Z,4.95
2022-08-02T15:36:47.754Z,3.97
2022-08-02T15:39:14.261Z,4.22
2022-08-02T15:41:40.758Z,3.85
2022-08-02T15:44:08.326Z,5.95
2022-08-02T15:46:36.001Z,4.60
2022-08-02T15:49:02.666Z,2.92
2022-08-02T15:51:29.233Z,4.53
2022-08-02T15:53:55.758Z,5.50
2022-08-02T15:56:24.339Z,6.28
2022-08-02T15:58:53.012Z,4.55
2022-08-02T16:01:23.925Z,5.65
2022-08-02T16:03:50.660Z,12.13
2022-08-02T16:06:17.152Z,3.95
2022-08-02T16:08:53.558Z,5.40
2022-08-02T16:11:21.983Z,3.30
2022-08-02T16:13:54.411Z,3.00
2022-08-02T16:16:31.321Z,10.57
2022-08-02T16:18:57.925Z,3.80
2022-08-02T16:21:24.926Z,3.83
2022-08-02T16:23:59.023Z,3.33
2022-08-02T16:26:34.152Z,3.83
2022-08-02T16:29:01.945Z,3.28
2022-08-02T16:31:28.582Z,5.20
2022-08-02T16:33:57.170Z,6.10
2022-08-02T16:36:24.574Z,4.93
2022-08-02T16:38:51.374Z,4.45
2022-08-02T16:41:17.918Z,6.75
2022-08-02T16:43:44.390Z,3.67
2022-08-02T16:46:10.981Z,3.67
2022-08-02T16:48:37.601Z,4.68
2022-08-02T16:51:04.811Z,5.32
2022-08-02T16:54:00.589Z,5.70
2022-08-02T16:56:28.164Z,4.65
2022-08-02T16:58:54.808Z,2.75
2022-08-02T17:01:27.206Z,5.00
2022-08-02T17:03:56.238Z,3.03
2022-08-02T17:06:26.049Z,3.67
2022-08-02T17:11:45.515Z,3.90
2022-08-02T17:14:13.414Z,4.57
2022-08-02T17:16:39.925Z,6.30
2022-08-02T17:19:06.888Z,5.32
2022-08-02T17:21:34.030Z,9.00
2022-08-02T17:24:05.624Z,7.47
2022-08-02T17:26:35.681Z,15.15
2022-08-02T17:29:15.945Z,5.40
2022-08-02T17:32:02.470Z,10.65
2022-08-02T17:34:31.566Z,8.18
2022-08-02T17:36:58.083Z,5.72
2022-08-02T17:39:24.650Z,5.13
2022-08-02T18:00:03.887Z,6.88
2022-08-02T18:02:31.300Z,12.75
2022-08-02T18:04:57.845Z,13.50
2022-08-02T18:07:25.269Z,7.50
2022-08-02T18:09:52.100Z,9.55
2022-08-02T18:12:20.022Z,10.10
2022-08-02T18:14:49.036Z,8.48
2022-08-02T18:17:16.651Z,7.43
2022-08-02T18:19:55.452Z,7.78
2022-08-02T18:22:25.069Z,6.47
2022-08-02T18:24:53.233Z,8.05
2022-08-02T18:27:19.887Z,9.25
2022-08-02T18:29:47.392Z,11.00
2022-08-02T18:33:01.115Z,12.50
2022-08-02T18:35:05.781Z,10.77
2022-08-02T18:37:43.939Z,9.93
2022-08-02T18:40:13.014Z,14.13
2022-08-02T18:42:39.559Z,14.80
2022-08-02T18:45:07.542Z,17.52
2022-08-02T18:47:34.100Z,16.42
2022-08-02T18:50:02.324Z,13.25
2022-08-02T18:52:30.889Z,11.38
2022-08-02T18:54:58.279Z,12.57
2022-08-02T18:58:19.757Z,15.95
2022-08-02T19:00:13.321Z,9.75
2022-08-02T19:02:40.112Z,9.68
2022-08-02T19:05:07.198Z,10.43
2022-08-02T19:07:49.810Z,10.48
2022-08-02T19:10:18.128Z,8.80
2022-08-02T19:12:45.124Z,7.38
2022-08-02T19:15:18.345Z,10.38
2022-08-02T19:17:53.786Z,8.70
2022-08-02T19:20:22.397Z,10.95
2022-08-02T19:22:53.852Z,10.60
2022-08-02T19:36:40.589Z,9.60
2022-08-02T19:39:08.902Z,9.30
2022-08-02T19:41:46.969Z,10.32
2022-08-02T19:44:22.840Z,10.80
2022-08-02T19:46:55.281Z,10.80
2022-08-02T19:49:40.657Z,8.55
2022-08-02T19:52:21.079Z,13.50
2022-08-02T19:54:55.256Z,8.90
2022-08-02T19:57:23.458Z,9.43
2022-08-02T19:59:51.997Z,11.52
2022-08-02T20:02:19.213Z,10.13
2022-08-02T20:04:49.860Z,12.57
2022-08-02T20:07:49.900Z,9.93
2022-08-02T20:10:05.988Z,10.27
2022-08-02T20:12:38.155Z,8.50
2022-08-02T20:15:07.865Z,8.27
2022-08-02T20:17:41.166Z,10.15
2022-08-02T20:20:13.995Z,9.88
2022-08-02T20:22:58.985Z,10.07
2022-08-02T20:25:25.843Z,10.60
2022-08-02T20:27:55.648Z,12.50
2022-08-02T20:30:22.185Z,12.75
2022-08-02T20:32:58.903Z,12.52
2022-08-02T20:35:41.263Z,11.50
2022-08-02T20:38:09.474Z,11.20
2022-08-02T20:40:38.532Z,13.02
2022-08-02T20:43:04.979Z,13.05
2022-08-02T20:45:34.341Z,13.65
2022-08-02T20:48:00.934Z,17.38
2022-08-02T20:50:46.594Z,18.33
2022-08-02T20:53:23.626Z,22.38
2022-08-02T20:55:53.377Z,22.58
2022-08-02T20:58:20.176Z,23.98
2022-08-02T21:00:46.954Z,26.58
2022-08-02T21:03:14.634Z,23.17
2022-08-02T21:05:54.865Z,23.60
2022-08-02T21:08:22.737Z,27.23
2022-08-02T21:10:51.798Z,29.40
2022-08-02T21:13:23.120Z,37.80
2022-08-02T21:15:50.425Z,42.92
2022-08-02T21:18:28.722Z,44.38
2022-08-02T21:21:03.385Z,38.63
2022-08-02T21:23:30.316Z,33.90
2022-08-02T21:26:02.992Z,27.52
2022-08-02T21:31:16.166Z,18.67
2022-08-02T21:33:57.827Z,14.30
2022-08-02T21:36:30.514Z,19.13
2022-08-02T21:38:59.413Z,14.27
2022-08-02T21:41:38.877Z,14.43
2022-08-02T21:44:12.562Z,13.88
2022-08-02T21:46:39.074Z,14.30
2022-08-02T21:49:05.879Z,16.45
2022-08-02T21:51:33.946Z,13.50
2022-08-02T21:54:18.947Z,15.57
2022-08-02T21:56:46.502Z,17.70
2022-08-02T21:59:15.828Z,16.75
2022-08-02T22:01:53.196Z,18.88
2022-08-02T22:04:20.907Z,17.15
2022-08-02T22:06:49.018Z,15.32
2022-08-02T22:09:17.249Z,14.73
2022-08-02T22:14:31.369Z,18.88
2022-08-02T22:16:57.943Z,18.65
2022-08-02T22:19:26.408Z,21.05
2022-08-02T22:21:56.598Z,19.35
2022-08-02T22:24:29.779Z,20.52
2022-08-02T22:26:57.074Z,23.30
2022-08-02T22:29:23.567Z,21.15
2022-08-02T22:31:50.173Z,21.40
2022-08-02T22:34:36.897Z,23.88
2022-08-02T22:37:05.987Z,21.38
2022-08-02T22:39:34.417Z,19.85
2022-08-02T22:42:05.549Z,20.98
2022-08-02T22:44:41.295Z,19.00
2022-08-02T22:47:14.526Z,19.15
2022-08-02T22:49:51.587Z,16.83
2022-08-02T22:52:21.585Z,15.40
2022-08-02T22:54:48.284Z,15.68
2022-08-02T22:57:14.757Z,14.18
2022-08-02T22:58:36.990Z,5.22
2022-08-02T22:59:02.780Z,21.67
2022-08-02T22:59:11.853Z,17.05
2022-08-02T22:59:41.750Z,13.90
2022-08-02T23:02:09.337Z,14.68
2022-08-02T23:04:36.711Z,12.55
2022-08-02T23:07:03.599Z,15.02
2022-08-02T23:09:30.163Z,15.80
2022-08-02T23:11:56.692Z,15.77
2022-08-02T23:14:23.145Z,16.35
2022-08-02T23:17:28.275Z,17.73
2022-08-02T23:19:54.771Z,18.13
2022-08-02T23:22:24.310Z,16.77
2022-08-02T23:24:56.909Z,20.23
2022-08-02T23:27:23.491Z,18.02
2022-08-02T23:29:49.964Z,18.35
2022-08-02T23:32:16.798Z,21.05
2022-08-02T23:34:43.614Z,19.58
2022-08-02T23:37:10.596Z,16.75
2022-08-02T23:39:37.440Z,19.70
2022-08-02T23:42:04.593Z,18.77
2022-08-02T23:44:31.112Z,18.98
2022-08-02T23:47:00.338Z,20.20
2022-08-02T23:49:27.323Z,18.33
2022-08-02T23:52:00.946Z,20.48
2022-08-02T23:54:28.754Z,19.02
2022-08-02T23:56:55.715Z,22.08
2022-08-02T23:59:22.614Z,21.00
